Historyczne dane pomiarowe

Dodano dane terminowe – wersja testowa.

Dane z okresu 1951-2019

Wersja bazy: 1.34 [2019-03-16, lista zmian], aktualizacja planowana na 2019-04-15

Dane meteo z obszaru Polski uzyskane na podstawie danych udostępnionych przez Instytut Meteorologii i Gospodarki Wodnej – Państwowy Instytut Badawczy.

 

Wybierz Datę:    

       

TemperaturaWilgotnośćZachmurzenieWiatrCiśnienieWidzialnośćZjawiska
 Data    tng td wb rh cc ccl cl cm ch dir g1 g2 mslp ppp      
1999-08-10 00:00:00 16.2--- 15.6 15.896wxwxwx1wx--1009.0 994.1 5.2---wxw1
1999-08-10 01:00:00 16.8--- 15.2 15.890wxwxwx1wx--1009.1 994.2----wx
1999-08-10 02:00:00 15.0--- 13.5 14.191wxwxwxwx0wx--1009.3 994.3----wx
1999-08-10 03:00:00 14.2--- 13.9 14.098wxwxwxwx0wx--1009.3 994.3----wx
1999-08-10 04:00:00 14.8--- 14.5 14.698wxwxwxwx0wx--1009.9 994.9----wx
1999-08-10 05:00:00 16.7--- 15.1 15.790wxwxwxwx2wx--1010.0 995.1----wx
1999-08-10 06:00:00 19.4--- 16.6 17.684wxwxwxwx1wx--1009.7 994.9 0.0---wx
1999-08-10 07:00:00 23.9--- 16.2 18.962wxwxwx3wx--1009.5 995.0----wx
1999-08-10 08:00:00 25.4--- 16.7 19.759wxwxwx2wx--1009.7 995.2----wx
1999-08-10 09:00:00 26.5--- 15.7 19.551wxwxwx3wx--1009.3 994.9----wx
1999-08-10 10:00:00 27.7--- 16.1 20.149wxwxwx3wx--1008.8 994.5----wx
1999-08-10 11:00:00 29.0--- 15.5 20.244wxwxwxwx3wx--1008.0 993.7----wx
1999-08-10 12:00:00 29.2--- 15.7 20.444wxwxwxwx3wx--1007.6 993.4 0.0---wx
1999-08-10 13:00:00 27.9--- 15.9 20.148wxwxwx3wx--1007.8 993.5----wx
1999-08-10 14:00:00 26.7--- 17.9 20.858wxwxwx1wx--1007.3 992.9----wx
1999-08-10 15:00:00 26.8--- 18.3 21.160wxwxwx0wx--1007.3 992.9----wx
1999-08-10 16:00:00 25.9--- 19.4 21.568wxwxwx0wx--1006.5 992.1----wx
1999-08-10 17:00:00 24.4--- 17.9 20.167wxwxwx3wx--1007.4 992.9----wx
1999-08-10 18:00:00 20.8--- 18.8 19.589wxwxwx3wx--1007.6 992.9 2.0---wx
1999-08-10 19:00:00 19.2--- 17.8 18.392wxwxwx3wx--1007.9 993.2----wx
1999-08-10 20:00:00 19.3--- 18.1 18.593wxwxwx3wx--1008.3 993.6----wxw1
1999-08-10 21:00:00 18.5--- 17.9 18.196wxwxwx2wx--1008.1 993.3----wx
1999-08-10 22:00:00 18.4--- 17.8 18.096wxwxwx2wx--1007.9 993.1----wxw1
1999-08-10 23:00:00 18.2--- 17.7 17.997wxwxwx2wx--1007.8 993.0----wxw1

 

Źródłem pochodzenia danych jest Instytut Meteorologii i Gospodarki Wodnej – Państwowy Instytut Badawczy. Dane Instytutu Meteorologii i Gospodarki Wodnej – Państwowego Instytutu Badawczego zostały przetworzone.

Dane źródłowe można odnaleźć na stronie https://dane.imgw.pl